Time;durP1;ratioP1;P1;durP2;ratioP2;P2;SDS_P1;SDS_P2;PMS_P1;PMS_P2;Temp;Humidity;BMP_temperature;BMP_pressure;BME280_temperature;BME280_humidity;BME280_pressure;Samples;Min_cycle;Max_cycle;Signal;HPM_P1;HPM_P2
2022/03/30 00:01:51;;;;;;;29.00;8.97;;;;;;;12.79;84.17;94209.72;5077622;28;20189;-59
2022/03/30 00:04:17;;;;;;;23.33;8.43;;;;;;;12.76;84.88;94204.38;5077726;28;20223;-59
2022/03/30 00:06:42;;;;;;;18.37;7.77;;;;;;;12.53;87.65;94210.28;5077941;28;20188;-58
2022/03/30 00:09:08;;;;;;;23.80;8.93;;;;;;;12.24;89.25;94212.47;5077844;28;20196;-63
2022/03/30 00:11:33;;;;;;;25.80;7.80;;;;;;;12.43;88.16;94200.47;5077694;28;20191;-63
2022/03/30 00:13:58;;;;;;;20.53;7.60;;;;;;;12.54;87.15;94200.84;5077574;28;20192;-63
2022/03/30 00:16:24;;;;;;;26.43;8.70;;;;;;;12.48;87.93;94195.19;5077535;28;20192;-63
2022/03/30 00:18:49;;;;;;;25.57;9.43;;;;;;;12.25;90.64;94197.56;5077587;28;20192;-64
2022/03/30 00:21:15;;;;;;;20.63;8.13;;;;;;;12.30;90.34;94194.25;5077613;28;20248;-63
2022/03/30 00:23:40;;;;;;;20.03;8.53;;;;;;;12.28;89.97;94193.94;5095340;28;20180;-62
2022/03/30 00:26:06;;;;;;;25.03;7.97;;;;;;;12.10;90.49;94188.31;5077302;28;20254;-70
2022/03/30 00:28:31;;;;;;;24.00;8.73;;;;;;;12.08;91.08;94183.28;5077351;28;20215;-71
2022/03/30 00:30:57;;;;;;;18.70;7.47;;;;;;;12.17;91.09;94188.81;5076557;28;20177;-70
2022/03/30 00:33:23;;;;;;;26.43;8.80;;;;;;;12.34;89.90;94175.72;5077601;28;20204;-70
2022/03/30 00:35:48;;;;;;;27.07;8.77;;;;;;;12.24;89.54;94174.13;5077111;28;20204;-70
2022/03/30 00:38:14;;;;;;;25.83;8.93;;;;;;;11.95;90.15;94163.38;5077114;28;20315;-70
2022/03/30 00:40:39;;;;;;;27.00;7.83;;;;;;;12.06;90.19;94169.25;5077701;28;20200;-59
2022/03/30 00:43:05;;;;;;;20.40;8.30;;;;;;;12.25;88.67;94164.72;5077338;28;20185;-62
2022/03/30 00:45:30;;;;;;;24.97;8.93;;;;;;;12.23;89.02;94167.91;5077158;28;20184;-63
2022/03/30 00:47:55;;;;;;;23.70;8.20;;;;;;;12.30;88.98;94164.13;5077136;28;20188;-63
2022/03/30 00:50:23;;;;;;;21.50;8.63;;;;;;;12.37;88.76;94159.19;5076820;28;20181;-63
2022/03/30 00:52:50;;;;;;;21.43;8.33;;;;;;;12.42;88.90;94168.81;5077365;28;20216;-64
2022/03/30 00:55:17;;;;;;;25.40;8.93;;;;;;;12.28;90.20;94159.09;5094799;28;20236;-63
2022/03/30 00:57:44;;;;;;;22.67;8.20;;;;;;;12.12;91.02;94155.78;5076959;28;20286;-62
2022/03/30 01:00:12;;;;;;;26.93;8.30;;;;;;;11.91;91.32;94146.31;5076717;28;20256;-62
2022/03/30 01:02:39;;;;;;;24.10;8.90;;;;;;;11.79;93.28;94155.31;5077244;28;20204;-62
2022/03/30 01:05:05;;;;;;;25.60;8.87;;;;;;;11.85;93.30;94147.31;5076931;28;20197;-62
2022/03/30 01:07:31;;;;;;;21.20;8.50;;;;;;;11.69;94.41;94158.41;5076665;28;20180;-63
2022/03/30 01:09:56;;;;;;;23.90;8.70;;;;;;;11.75;93.68;94159.38;5076497;28;20194;-62
2022/03/30 01:12:21;;;;;;;21.90;8.77;;;;;;;11.78;94.23;94155.75;5076830;28;20270;-62
2022/03/30 01:14:47;;;;;;;25.60;8.20;;;;;;;11.91;92.65;94148.31;5076664;28;20288;-62
2022/03/30 01:17:13;;;;;;;20.37;8.30;;;;;;;11.95;92.51;94146.97;5076591;28;20184;-62
2022/03/30 01:19:39;;;;;;;18.90;8.83;;;;;;;11.87;93.59;94147.66;5076626;28;20180;-63
2022/03/30 01:22:07;;;;;;;25.93;9.23;;;;;;;11.68;95.61;94151.41;5076386;28;20183;-71
2022/03/30 01:24:33;;;;;;;17.83;8.70;;;;;;;11.80;95.16;94142.41;5076885;28;20528;-70
2022/03/30 01:26:59;;;;;;;32.60;8.87;;;;;;;11.79;95.02;94143.59;5076507;28;20267;-70
2022/03/30 01:32:25;;;;;;;21.83;8.80;;;;;;;11.97;93.67;94141.03;5094823;28;20191;-71
2022/03/30 01:34:54;;;;;;;23.80;9.17;;;;;;;12.06;93.23;94138.41;5076681;28;20208;-71
2022/03/30 01:37:20;;;;;;;30.83;9.83;;;;;;;12.06;93.33;94130.19;5075972;28;20184;-58
2022/03/30 01:39:46;;;;;;;27.70;9.37;;;;;;;12.01;94.44;94128.00;5076459;28;20194;-58
2022/03/30 01:42:12;;;;;;;29.33;9.17;;;;;;;11.96;96.13;94121.16;5076361;28;20267;-58
2022/03/30 01:44:38;;;;;;;25.00;9.07;;;;;;;12.02;99.16;94118.63;5094196;28;20231;-58
2022/03/30 01:47:04;;;;;;;23.77;9.53;;;;;;;12.00;100.00;94116.31;5076191;28;20190;-58
2022/03/30 01:49:29;;;;;;;22.10;9.50;;;;;;;12.00;100.00;94115.53;5076145;28;20192;-58
2022/03/30 01:51:56;;;;;;;16.77;8.40;;;;;;;12.02;100.00;94118.63;5075975;28;20188;-59
2022/03/30 01:54:24;;;;;;;25.43;8.93;;;;;;;12.06;100.00;94103.56;5075821;28;20673;-58
2022/03/30 01:56:51;;;;;;;20.57;8.70;;;;;;;12.05;100.00;94117.69;5076100;28;20354;-63
2022/03/30 01:59:17;;;;;;;18.77;9.27;;;;;;;12.06;100.00;94111.03;5076503;28;20225;-59
2022/03/30 02:01:43;;;;;;;22.63;9.37;;;;;;;12.02;100.00;94104.94;5075913;28;20215;-59
2022/03/30 02:04:09;;;;;;;18.97;9.07;;;;;;;12.05;100.00;94109.50;5075987;28;20203;-58
2022/03/30 02:06:35;;;;;;;21.87;9.37;;;;;;;11.93;100.00;94102.88;5093881;28;20184;-58
2022/03/30 02:09:01;;;;;;;20.20;9.27;;;;;;;11.86;100.00;94099.59;5075776;28;20187;-59
2022/03/30 02:11:26;;;;;;;18.20;8.97;;;;;;;11.73;100.00;94098.91;5075756;28;20244;-58
2022/03/30 02:13:53;;;;;;;24.83;9.53;;;;;;;11.81;100.00;94102.91;5076218;28;20192;-60
2022/03/30 02:16:19;;;;;;;26.87;10.07;;;;;;;11.60;100.00;94098.13;5075701;28;20183;-58
2022/03/30 02:18:45;;;;;;;25.90;10.40;;;;;;;11.62;100.00;94096.50;5075716;28;20176;-57
2022/03/30 02:21:11;;;;;;;15.43;8.57;;;;;;;11.69;100.00;94084.59;5075508;28;20241;-57
2022/03/30 02:23:36;;;;;;;16.53;9.53;;;;;;;11.72;100.00;94084.44;5075758;28;20635;-57
2022/03/30 02:26:02;;;;;;;26.20;9.67;;;;;;;11.80;100.00;94071.31;5075509;28;20177;-57
2022/03/30 02:28:27;;;;;;;20.90;8.97;;;;;;;11.63;100.00;94065.25;5075434;28;20201;-57
2022/03/30 02:30:52;;;;;;;25.90;9.77;;;;;;;11.04;100.00;94078.09;5075701;28;20180;-57
2022/03/30 02:33:17;;;;;;;25.43;10.47;;;;;;;11.25;100.00;94072.72;5075590;28;20181;-61
2022/03/30 02:35:43;;;;;;;23.00;9.77;;;;;;;11.02;100.00;94069.56;5075376;28;20295;-57
2022/03/30 02:38:08;;;;;;;23.10;10.00;;;;;;;10.81;100.00;94060.06;5075596;28;20186;-58
2022/03/30 02:40:34;;;;;;;25.10;9.10;;;;;;;11.02;100.00;94056.66;5075378;28;20184;-57
2022/03/30 02:42:59;;;;;;;22.97;9.20;;;;;;;11.07;100.00;94055.38;5075577;28;20190;-58
2022/03/30 02:45:24;;;;;;;23.17;9.93;;;;;;;11.09;100.00;94048.25;5075371;28;20238;-57
2022/03/30 02:50:34;;;;;;;21.27;9.70;;;;;;;10.88;100.00;94042.69;5093872;28;20206;-62
2022/03/30 02:52:59;;;;;;;21.57;9.13;;;;;;;10.85;100.00;94032.66;5075128;28;20187;-58
2022/03/30 02:55:24;;;;;;;26.23;9.57;;;;;;;10.76;100.00;94035.25;5077522;28;20230;-58
2022/03/30 02:57:50;;;;;;;22.23;9.13;;;;;;;10.60;100.00;94035.38;5078829;28;20185;-58
2022/03/30 03:00:15;;;;;;;25.33;9.00;;;;;;;10.48;100.00;94036.16;5078709;28;20278;-58
2022/03/30 03:02:41;;;;;;;25.37;9.70;;;;;;;10.41;100.00;94028.16;5078500;28;20197;-58
2022/03/30 03:05:07;;;;;;;25.77;9.63;;;;;;;10.43;100.00;94014.84;5078774;28;20218;-58
2022/03/30 03:07:32;;;;;;;35.23;10.27;;;;;;;10.52;100.00;94025.88;5079105;28;20191;-58
2022/03/30 03:09:58;;;;;;;21.60;8.97;;;;;;;10.44;100.00;94019.09;5078995;28;20547;-58
2022/03/30 03:12:23;;;;;;;29.70;9.60;;;;;;;10.36;100.00;94024.00;5078787;28;20182;-58
2022/03/30 03:14:48;;;;;;;30.30;9.80;;;;;;;10.22;100.00;94004.53;5078375;28;20207;-58
2022/03/30 03:17:14;;;;;;;24.93;9.20;;;;;;;10.13;100.00;94003.22;5078513;28;20183;-59
2022/03/30 03:19:41;;;;;;;20.80;10.07;;;;;;;10.20;100.00;94009.69;5078375;28;20215;-58
2022/03/30 03:22:06;;;;;;;20.53;9.47;;;;;;;10.22;100.00;94007.28;5078499;28;20177;-58
2022/03/30 03:24:32;;;;;;;21.80;8.77;;;;;;;10.28;100.00;93994.63;5078318;28;20188;-58
2022/03/30 03:26:57;;;;;;;31.53;9.47;;;;;;;10.23;100.00;94006.09;5095958;28;20565;-63
2022/03/30 03:29:23;;;;;;;26.03;10.07;;;;;;;10.04;100.00;94008.53;5077993;28;20246;-62
2022/03/30 03:31:48;;;;;;;21.33;9.40;;;;;;;10.02;100.00;94000.03;5078750;28;20191;-65
2022/03/30 03:34:13;;;;;;;25.00;9.40;;;;;;;10.07;100.00;93996.81;5078069;28;20218;-65
2022/03/30 03:36:39;;;;;;;24.07;9.93;;;;;;;10.10;100.00;93992.44;5078402;28;20192;-64
2022/03/30 03:39:04;;;;;;;29.00;9.90;;;;;;;10.11;100.00;93983.06;5078030;28;20264;-65
2022/03/30 03:41:30;;;;;;;20.53;9.53;;;;;;;10.14;100.00;93980.19;5078277;28;20202;-64
2022/03/30 03:43:55;;;;;;;27.13;9.63;;;;;;;10.12;100.00;93981.09;5077976;28;20184;-65
2022/03/30 03:46:20;;;;;;;29.47;10.20;;;;;;;10.17;100.00;93966.91;5078042;28;20198;-63
2022/03/30 03:48:46;;;;;;;23.37;9.97;;;;;;;10.09;100.00;93978.03;5077989;28;20177;-57
2022/03/30 03:51:11;;;;;;;21.23;9.23;;;;;;;10.14;100.00;93968.53;5078208;28;20200;-57
2022/03/30 03:53:36;;;;;;;24.43;9.03;;;;;;;10.23;100.00;93971.38;5077816;28;20177;-57
2022/03/30 03:56:03;;;;;;;23.73;9.57;;;;;;;10.23;100.00;93965.19;5077830;28;20219;-57
2022/03/30 03:58:28;;;;;;;26.00;10.00;;;;;;;10.28;100.00;93964.63;5077653;28;20630;-57
2022/03/30 04:00:54;;;;;;;27.57;9.90;;;;;;;10.28;100.00;93957.22;5077841;28;20191;-57
2022/03/30 04:03:19;;;;;;;26.80;9.17;;;;;;;10.35;100.00;93950.78;5077641;28;20211;-59
2022/03/30 04:05:44;;;;;;;23.40;9.07;;;;;;;10.28;100.00;93953.72;5078279;28;20194;-69
2022/03/30 04:08:10;;;;;;;26.37;9.00;;;;;;;10.22;100.00;93941.81;5078088;28;20199;-62
2022/03/30 04:10:37;;;;;;;24.60;9.80;;;;;;;10.18;100.00;93935.69;5077859;28;20205;-63
2022/03/30 04:13:06;;;;;;;28.40;9.87;;;;;;;10.10;100.00;93941.34;5077605;28;20210;-63
2022/03/30 04:15:32;;;;;;;21.93;9.23;;;;;;;10.06;100.00;93935.25;5077931;28;20199;-63
2022/03/30 04:17:58;;;;;;;31.67;9.23;;;;;;;10.06;100.00;93935.25;5077806;28;20194;-64
2022/03/30 04:20:23;;;;;;;23.40;9.83;;;;;;;10.16;100.00;93927.19;5077466;28;20180;-63
2022/03/30 04:22:49;;;;;;;22.90;9.37;;;;;;;10.03;100.00;93930.63;5077452;28;20190;-62
2022/03/30 04:25:15;;;;;;;27.30;10.10;;;;;;;10.06;100.00;93932.53;5077503;28;20184;-63
2022/03/30 04:27:45;;;;;;;24.77;9.60;;;;;;;10.03;100.00;93929.88;5077332;28;20193;-63
2022/03/30 04:30:10;;;;;;;31.00;9.93;;;;;;;9.98;100.00;93928.47;5077276;28;20186;-63
2022/03/30 04:32:36;;;;;;;27.83;9.33;;;;;;;10.03;100.00;93927.91;5077107;28;20213;-63
2022/03/30 04:35:01;;;;;;;24.23;9.30;;;;;;;10.03;100.00;93929.88;5077069;28;20363;-63
2022/03/30 04:37:27;;;;;;;23.90;10.07;;;;;;;10.01;100.00;93927.59;5077255;28;20218;-63
2022/03/30 04:39:52;;;;;;;27.57;10.63;;;;;;;10.08;100.00;93930.13;5077213;28;20203;-60
2022/03/30 04:42:20;;;;;;;25.67;10.07;;;;;;;10.12;100.00;93934.72;5076902;28;20198;-61
2022/03/30 04:44:45;;;;;;;22.30;9.73;;;;;;;10.21;100.00;93940.28;5077062;28;20187;-57
2022/03/30 04:47:11;;;;;;;25.80;9.50;;;;;;;10.39;100.00;93929.59;5077232;28;20191;-57
2022/03/30 04:49:36;;;;;;;26.57;10.00;;;;;;;10.49;100.00;93933.97;5077425;28;20214;-57
2022/03/30 04:52:01;;;;;;;24.43;8.87;;;;;;;10.45;100.00;93927.84;5077601;28;20199;-57
2022/03/30 04:54:27;;;;;;;24.07;9.00;;;;;;;10.52;100.00;93933.09;5077323;28;20210;-58
2022/03/30 04:56:53;;;;;;;23.33;8.43;;;;;;;10.40;100.00;93931.13;5076968;28;20597;-57
2022/03/30 04:59:19;;;;;;;26.17;9.70;;;;;;;10.48;100.00;93932.44;5076817;28;20238;-62
2022/03/30 05:01:44;;;;;;;23.80;9.23;;;;;;;10.59;100.00;93925.41;5077331;28;20197;-59
2022/03/30 05:04:10;;;;;;;23.93;9.30;;;;;;;10.61;100.00;93935.91;5076752;28;20208;-58
2022/03/30 05:06:35;;;;;;;20.83;9.17;;;;;;;10.75;100.00;93932.72;5076806;28;20187;-60
2022/03/30 05:09:01;;;;;;;22.80;8.40;;;;;;;10.83;100.00;93934.00;5076844;28;20182;-59
2022/03/30 05:11:26;;;;;;;17.93;8.87;;;;;;;10.84;100.00;93932.81;5076567;28;20192;-59
2022/03/30 05:13:51;;;;;;;29.33;9.83;;;;;;;10.85;100.00;93929.63;5076918;28;20181;-59
2022/03/30 05:16:17;;;;;;;24.87;9.27;;;;;;;10.79;100.00;93925.19;5076310;28;20209;-60
2022/03/30 05:18:42;;;;;;;24.37;9.30;;;;;;;10.83;100.00;93926.59;5076281;28;20226;-68
2022/03/30 05:21:08;;;;;;;20.97;8.50;;;;;;;10.90;100.00;93931.06;5076735;28;20185;-58
2022/03/30 05:23:36;;;;;;;22.50;8.30;;;;;;;10.93;100.00;93935.63;5076725;28;20236;-58
2022/03/30 05:26:02;;;;;;;23.17;8.93;;;;;;;11.03;100.00;93926.34;5076295;28;20195;-58
2022/03/30 05:28:28;;;;;;;28.63;9.13;;;;;;;11.09;100.00;93921.81;5076419;28;20181;-58
2022/03/30 05:30:53;;;;;;;20.63;8.63;;;;;;;11.16;100.00;93935.25;5076267;28;20233;-59
2022/03/30 05:33:18;;;;;;;17.00;8.33;;;;;;;11.14;100.00;93929.47;5076301;28;20191;-58
2022/03/30 05:35:43;;;;;;;19.83;8.53;;;;;;;11.16;100.00;93927.03;5076574;28;20202;-63
2022/03/30 05:38:09;;;;;;;21.47;8.60;;;;;;;11.22;100.00;93926.03;5076262;28;20188;-62
2022/03/30 05:40:34;;;;;;;22.73;9.57;;;;;;;11.24;100.00;93920.13;5076302;28;20199;-70
2022/03/30 05:42:59;;;;;;;23.53;8.87;;;;;;;11.13;100.00;93925.19;5076440;28;20660;-70
2022/03/30 05:45:25;;;;;;;22.67;8.70;;;;;;;11.23;100.00;93932.25;5076189;28;20212;-70
2022/03/30 05:47:50;;;;;;;23.80;9.50;;;;;;;11.35;100.00;93931.44;5076858;28;20260;-70
2022/03/30 05:50:16;;;;;;;25.63;9.40;;;;;;;11.38;100.00;93925.09;5075964;28;20185;-71
2022/03/30 05:52:41;;;;;;;18.73;8.97;;;;;;;11.47;100.00;93917.72;5076198;28;20188;-71
2022/03/30 05:55:09;;;;;;;20.30;9.17;;;;;;;11.58;100.00;93925.56;5075796;28;20247;-70
2022/03/30 05:57:35;;;;;;;21.37;8.80;;;;;;;11.66;100.00;93929.59;5075869;28;20285;-63
2022/03/30 06:00:00;;;;;;;26.47;9.30;;;;;;;11.78;100.00;93928.75;5076016;28;20226;-63
2022/03/30 06:02:25;;;;;;;24.00;8.70;;;;;;;11.87;100.00;93926.09;5075523;28;20190;-61
2022/03/30 06:04:53;;;;;;;30.63;9.47;;;;;;;11.92;100.00;93928.25;5075471;28;20255;-62
2022/03/30 06:07:18;;;;;;;24.87;9.83;;;;;;;12.03;100.00;93925.88;5076189;28;20195;-62
2022/03/30 06:09:44;;;;;;;27.23;8.63;;;;;;;12.08;100.00;93941.69;5076310;28;20196;-63
2022/03/30 06:12:11;;;;;;;23.77;10.07;;;;;;;12.09;100.00;93933.03;5075683;28;20184;-63
2022/03/30 06:14:36;;;;;;;22.17;8.60;;;;;;;12.20;99.98;93935.41;5075762;28;20199;-62
2022/03/30 06:17:03;;;;;;;24.70;9.27;;;;;;;12.33;97.78;93930.56;5075530;28;20210;-59
2022/03/30 06:19:30;;;;;;;23.67;9.27;;;;;;;12.40;96.99;93930.28;5075534;28;20176;-59
2022/03/30 06:21:56;;;;;;;17.83;8.10;;;;;;;12.52;95.74;93926.69;5075747;28;20190;-60
2022/03/30 06:24:21;;;;;;;21.17;9.50;;;;;;;12.59;95.62;93923.66;5075683;28;20186;-59
2022/03/30 06:26:47;;;;;;;21.67;8.53;;;;;;;12.72;94.16;93918.84;5075685;28;20209;-58
2022/03/30 06:29:13;;;;;;;17.60;9.07;;;;;;;12.82;93.34;93923.16;5076429;28;20191;-58
2022/03/30 06:31:38;;;;;;;22.20;9.43;;;;;;;12.90;93.36;93927.88;5079349;28;20241;-62
2022/03/30 06:34:03;;;;;;;18.83;9.13;;;;;;;13.02;92.95;93931.72;5079282;28;20215;-63
2022/03/30 06:36:30;;;;;;;17.57;8.30;;;;;;;13.05;90.95;93928.84;5078644;28;20250;-63
2022/03/30 06:38:56;;;;;;;26.20;9.00;;;;;;;13.09;91.45;93931.44;5078724;28;20184;-64
2022/03/30 06:41:24;;;;;;;21.07;9.03;;;;;;;13.25;90.29;93925.66;5079066;28;20184;-64
2022/03/30 06:43:49;;;;;;;24.17;9.40;;;;;;;13.35;90.06;93927.19;5079350;28;20184;-63
2022/03/30 06:46:16;;;;;;;20.17;9.03;;;;;;;13.44;88.33;93929.94;5079565;28;20272;-63
2022/03/30 06:48:42;;;;;;;21.83;8.77;;;;;;;13.50;87.50;93928.13;5079064;28;20176;-60
2022/03/30 06:51:08;;;;;;;24.40;8.93;;;;;;;13.54;86.43;93920.50;5079279;28;20247;-63
2022/03/30 06:53:34;;;;;;;18.00;8.30;;;;;;;13.55;86.96;93930.22;5079039;28;20176;-60
2022/03/30 06:55:59;;;;;;;21.23;8.77;;;;;;;13.68;85.64;93925.38;5078877;28;20291;-60
2022/03/30 06:58:25;;;;;;;21.40;8.77;;;;;;;13.72;84.82;93928.72;5078555;28;20183;-60
2022/03/30 07:00:51;;;;;;;20.40;8.80;;;;;;;13.80;84.68;93929.91;5078243;28;20196;-60
2022/03/30 07:03:18;;;;;;;30.63;9.50;;;;;;;13.85;83.37;93921.09;5078430;28;20204;-61
2022/03/30 07:05:43;;;;;;;22.87;8.67;;;;;;;14.05;82.58;93924.09;5078391;28;20544;-60
2022/03/30 07:10:53;;;;;;;24.27;9.03;;;;;;;14.18;82.45;93915.66;5096651;28;20199;-65
2022/03/30 07:13:19;;;;;;;31.50;9.10;;;;;;;14.34;82.37;93923.56;5078465;28;20176;-65
2022/03/30 07:15:44;;;;;;;22.93;8.27;;;;;;;14.38;82.46;93919.44;5078435;28;20667;-64
2022/03/30 07:18:10;;;;;;;23.20;8.37;;;;;;;14.47;81.35;93915.91;5078340;28;20255;-62
2022/03/30 07:20:36;;;;;;;24.23;7.87;;;;;;;14.46;81.81;93912.38;5078321;28;20177;-63
2022/03/30 07:23:02;;;;;;;25.60;8.37;;;;;;;14.50;81.47;93915.72;5078174;28;20242;-63
2022/03/30 07:25:30;;;;;;;26.53;8.40;;;;;;;14.67;82.09;93914.13;5078102;28;20185;-63
2022/03/30 07:28:03;;;;;;;29.20;8.80;;;;;;;14.86;81.77;93915.56;5078428;28;20181;-64
2022/03/30 07:30:30;;;;;;;26.80;8.23;;;;;;;14.91;81.07;93917.69;5096067;28;20206;-58
2022/03/30 07:32:56;;;;;;;20.17;7.13;;;;;;;14.95;81.34;93912.00;5077966;28;20184;-61
2022/03/30 07:35:25;;;;;;;27.17;7.93;;;;;;;15.03;82.05;93913.94;5077920;28;20211;-59
2022/03/30 07:37:50;;;;;;;25.17;7.73;;;;;;;15.20;81.27;93909.56;5078111;28;20225;-59
2022/03/30 07:40:18;;;;;;;31.67;8.10;;;;;;;15.26;80.73;93909.69;5077856;28;20181;-59
2022/03/30 07:42:45;;;;;;;23.73;8.67;;;;;;;15.34;80.69;93908.81;5078092;28;20196;-60
2022/03/30 07:45:11;;;;;;;21.03;7.90;;;;;;;15.35;80.60;93904.91;5077995;28;20220;-72
2022/03/30 07:47:37;;;;;;;21.67;8.20;;;;;;;15.34;80.51;93908.81;5077924;28;20180;-61
2022/03/30 07:50:05;;;;;;;26.37;7.70;;;;;;;15.34;80.76;93899.84;5077963;28;20192;-62
2022/03/30 07:52:30;;;;;;;26.80;8.00;;;;;;;15.30;81.39;93908.25;5077903;28;20355;-62
2022/03/30 07:54:56;;;;;;;25.60;7.53;;;;;;;15.29;80.95;93903.97;5077480;28;20213;-62
2022/03/30 07:57:28;;;;;;;25.60;7.80;;;;;;;15.40;81.43;93909.72;5077806;28;20176;-62
2022/03/30 07:59:55;;;;;;;23.47;8.27;;;;;;;15.42;80.89;93914.78;5077557;28;20275;-62
2022/03/30 08:02:23;;;;;;;26.83;8.37;;;;;;;15.47;80.51;93903.09;5077443;28;20192;-63
2022/03/30 08:04:49;;;;;;;29.20;7.73;;;;;;;15.39;81.02;93904.69;5078208;28;20207;-57
2022/03/30 08:07:14;;;;;;;24.00;7.30;;;;;;;15.42;81.77;93906.53;5077666;28;20180;-63
2022/03/30 08:09:40;;;;;;;19.63;7.70;;;;;;;15.44;81.80;93899.31;5078199;28;20172;-65
2022/03/30 08:12:07;;;;;;;23.20;7.03;;;;;;;15.46;81.54;93913.38;5078033;28;20185;-63
2022/03/30 08:14:32;;;;;;;23.80;7.43;;;;;;;15.46;81.04;93896.88;5077351;28;20204;-63
2022/03/30 08:16:58;;;;;;;24.47;8.50;;;;;;;15.31;81.18;93904.28;5077850;28;20185;-65
2022/03/30 08:19:23;;;;;;;25.43;7.67;;;;;;;15.25;81.90;93895.16;5077392;28;20252;-65
2022/03/30 08:24:34;;;;;;;23.47;7.60;;;;;;;15.39;81.95;93899.97;5095786;28;20237;-65
2022/03/30 08:26:59;;;;;;;22.50;6.67;;;;;;;15.45;82.04;93900.09;5077857;28;20224;-64
2022/03/30 08:29:24;;;;;;;27.23;8.13;;;;;;;15.45;81.97;93889.81;5077325;28;20189;-64
2022/03/30 08:31:50;;;;;;;26.10;7.47;;;;;;;15.50;81.80;93902.94;5077190;28;20195;-64
2022/03/30 08:34:16;;;;;;;24.83;7.47;;;;;;;15.42;81.83;93896.28;5077651;28;20180;-64
2022/03/30 08:36:42;;;;;;;25.93;8.03;;;;;;;15.35;81.53;93902.16;5077292;28;20184;-64
2022/03/30 08:39:11;;;;;;;25.17;7.90;;;;;;;15.47;82.04;93898.38;5077116;28;20173;-63
2022/03/30 08:41:42;;;;;;;28.50;8.10;;;;;;;15.57;81.51;93891.56;5077227;28;20259;-62
2022/03/30 08:44:08;;;;;;;24.40;7.60;;;;;;;15.57;82.18;93891.56;5077050;28;20185;-63
2022/03/30 08:46:33;;;;;;;25.57;9.40;;;;;;;15.63;81.58;93897.91;5077641;28;20181;-63
2022/03/30 08:48:59;;;;;;;27.20;7.97;;;;;;;15.59;81.93;93897.34;5076596;28;20219;-63
2022/03/30 08:51:25;;;;;;;21.40;8.10;;;;;;;15.57;82.13;93896.31;5077033;28;20657;-63
2022/03/30 08:53:50;;;;;;;28.13;7.93;;;;;;;15.44;82.98;93893.81;5076640;28;20188;-63
2022/03/30 08:56:17;;;;;;;21.97;8.70;;;;;;;15.54;81.83;93892.50;5076718;28;20208;-62
2022/03/30 08:58:42;;;;;;;25.60;7.90;;;;;;;15.61;82.19;93896.88;5077311;28;20181;-64
2022/03/30 09:01:09;;;;;;;21.53;7.83;;;;;;;15.60;82.69;93904.41;5076976;28;20203;-60
2022/03/30 09:03:35;;;;;;;30.43;8.23;;;;;;;15.65;82.22;93897.44;5076690;28;20287;-60
2022/03/30 09:06:01;;;;;;;21.83;7.90;;;;;;;15.54;83.20;93895.25;5076545;28;20192;-60
2022/03/30 09:08:27;;;;;;;27.77;7.90;;;;;;;15.39;83.55;93894.47;5076917;28;20209;-60
2022/03/30 09:10:55;;;;;;;24.60;8.10;;;;;;;15.07;85.74;93898.03;5076757;28;20184;-58
2022/03/30 09:13:21;;;;;;;30.03;8.60;;;;;;;14.84;87.57;93901.53;5076492;28;20782;-58
2022/03/30 09:15:49;;;;;;;23.30;8.13;;;;;;;15.03;87.47;93891.94;5076563;28;20212;-58
2022/03/30 09:18:15;;;;;;;21.97;7.27;;;;;;;15.18;87.20;93891.97;5094226;28;20173;-57
2022/03/30 09:20:52;;;;;;;33.37;8.33;;;;;;;15.14;87.15;93892.19;5076518;28;20184;-64
2022/03/30 09:23:17;;;;;;;29.73;9.07;;;;;;;14.99;89.35;93891.34;5077132;28;20191;-62
2022/03/30 09:25:45;;;;;;;25.70;7.57;;;;;;;14.59;91.70;93879.97;5076708;28;20188;-63
2022/03/30 09:28:11;;;;;;;26.97;7.80;;;;;;;14.80;92.13;93881.72;5076422;28;20283;-62
2022/03/30 09:30:36;;;;;;;32.27;8.37;;;;;;;14.68;93.36;93882.66;5076843;28;20616;-62
2022/03/30 09:33:02;;;;;;;21.93;8.10;;;;;;;14.79;95.66;93882.91;5076365;28;20189;-62
2022/03/30 09:35:38;;;;;;;24.43;8.50;;;;;;;14.75;97.60;93876.84;5076158;28;20228;-63
2022/03/30 09:38:05;;;;;;;29.87;8.67;;;;;;;14.83;97.02;93889.00;5076400;28;20193;-56
2022/03/30 09:40:52;;;;;;;24.17;8.27;;;;;;;14.89;100.00;93878.91;5076212;28;20188;-59
2022/03/30 09:43:34;;;;;;;27.23;9.40;;;;;;;15.04;100.00;93881.72;5093799;28;20199;-56
2022/03/30 09:46:02;;;;;;;25.77;8.90;;;;;;;15.18;100.00;93886.47;5076674;28;20206;-59
2022/03/30 09:48:28;;;;;;;20.33;7.40;;;;;;;15.20;100.00;93881.28;5094014;28;20189;-59
2022/03/30 09:50:55;;;;;;;19.67;7.43;;;;;;;15.05;100.00;93883.97;5076302;28;20180;-59
2022/03/30 09:53:27;;;;;;;19.30;8.03;;;;;;;15.07;100.00;93881.53;5076659;28;20194;-64
2022/03/30 09:56:04;;;;;;;17.70;7.23;;;;;;;14.88;100.00;93874.63;5075884;28;20200;-63
2022/03/30 09:58:32;;;;;;;23.13;10.43;;;;;;;14.63;100.00;93864.09;5076303;28;20274;-63
2022/03/30 10:01:09;;;;;;;20.07;8.40;;;;;;;14.27;100.00;93869.75;5076193;28;20187;-63
2022/03/30 10:03:55;;;;;;;21.93;7.97;;;;;;;13.95;100.00;93855.97;5076134;28;20211;-62
2022/03/30 10:06:40;;;;;;;20.77;9.53;;;;;;;13.69;100.00;93863.03;5076345;28;20194;-63
2022/03/30 10:09:05;;;;;;;23.60;8.73;;;;;;;13.61;100.00;93856.31;5076632;28;20188;-62
2022/03/30 10:11:31;;;;;;;18.87;7.63;;;;;;;13.46;100.00;93853.47;5075740;28;20198;-59
2022/03/30 10:14:00;;;;;;;24.60;7.43;;;;;;;13.43;100.00;93857.13;5076343;28;20191;-62
2022/03/30 10:16:27;;;;;;;17.43;7.77;;;;;;;13.63;100.00;93843.69;5075747;28;20232;-64
2022/03/30 10:27:35;;;;;;;21.63;7.80;;;;;;;13.63;100.00;93849.19;5112079;28;20223;-73
2022/03/30 10:30:04;;;;;;;21.97;7.83;;;;;;;13.49;100.00;93840.81;5096444;28;20233;-74
2022/03/30 10:32:35;;;;;;;21.83;7.13;;;;;;;13.45;100.00;93838.22;5096168;28;20207;-72
2022/03/30 10:35:06;;;;;;;21.37;7.90;;;;;;;13.55;100.00;93836.97;5095826;28;20307;-76
2022/03/30 10:37:34;;;;;;;21.93;8.03;;;;;;;13.60;100.00;93841.88;5096010;28;20230;-72
2022/03/30 10:40:03;;;;;;;20.27;7.63;;;;;;;13.71;100.00;93842.16;5096362;28;20199;-58
2022/03/30 10:42:58;;;;;;;20.27;7.73;;;;;;;13.78;100.00;93839.06;5095896;28;20199;-73
2022/03/30 10:45:36;;;;;;;19.57;7.13;;;;;;;13.87;100.00;93836.28;5095864;28;20213;-72
2022/03/30 10:48:17;;;;;;;20.70;7.13;;;;;;;14.16;100.00;93831.00;5096289;28;20227;-73
2022/03/30 10:50:46;;;;;;;19.77;7.30;;;;;;;14.20;100.00;93834.34;5096120;28;20199;-71
2022/03/30 10:53:38;;;;;;;22.87;6.60;;;;;;;14.20;100.00;93826.09;5095548;28;20200;-73
2022/03/30 10:56:15;;;;;;;18.43;6.73;;;;;;;14.27;100.00;93822.31;5096124;28;20232;-72
2022/03/30 10:58:53;;;;;;;17.83;6.50;;;;;;;14.27;100.00;93823.06;5095848;28;20290;-59
2022/03/30 11:01:21;;;;;;;18.07;6.77;;;;;;;14.46;100.00;93821.72;5095304;28;20191;-63
2022/03/30 11:03:59;;;;;;;13.97;6.43;;;;;;;14.49;100.00;93820.06;5095691;28;20214;-64
2022/03/30 11:06:26;;;;;;;22.27;6.87;;;;;;;14.62;100.00;93817.84;5113679;28;20191;-63
2022/03/30 11:08:51;;;;;;;16.33;6.67;;;;;;;14.59;100.00;93814.03;5095863;28;20200;-64
2022/03/30 11:11:39;;;;;;;20.00;6.80;;;;;;;14.93;100.00;93816.25;5113659;28;20244;-63
2022/03/30 11:14:26;;;;;;;20.47;7.70;;;;;;;15.18;100.00;93810.25;5095728;28;20295;-63
2022/03/30 11:16:55;;;;;;;20.80;7.57;;;;;;;15.37;100.00;93806.13;5098721;28;20207;-64
2022/03/30 11:19:28;;;;;;;18.03;6.90;;;;;;;15.49;100.00;93807.09;5098623;28;20192;-63
2022/03/30 11:22:09;;;;;;;19.90;6.30;;;;;;;15.70;100.00;93801.22;5099168;28;20253;-63
2022/03/30 11:24:35;;;;;;;21.63;7.43;;;;;;;15.86;100.00;93802.75;5098627;28;20208;-64
2022/03/30 11:27:01;;;;;;;18.80;6.83;;;;;;;16.00;100.00;93804.72;5098332;28;20211;-63
2022/03/30 11:29:47;;;;;;;20.83;7.07;;;;;;;15.99;100.00;93795.69;5099134;28;20199;-62
2022/03/30 11:32:32;;;;;;;18.87;6.27;;;;;;;16.04;100.00;93795.06;5098513;28;20221;-62
2022/03/30 11:35:01;;;;;;;14.77;6.10;;;;;;;15.88;100.00;93792.75;5098771;28;20211;-64
2022/03/30 11:37:29;;;;;;;19.57;7.37;;;;;;;16.07;100.00;93791.31;5098599;28;20183;-62
2022/03/30 11:40:03;;;;;;;22.03;6.97;;;;;;;16.11;100.00;93789.13;5098153;28;20192;-62